Time;durP1;ratioP1;P1;durP2;ratioP2;P2;SDS_P1;SDS_P2;PMS_P1;PMS_P2;Temp;Humidity;BMP_temperature;BMP_pressure;BME280_temperature;BME280_humidity;BME280_pressure;Samples;Min_cycle;Max_cycle;Signal;HPM_P1;HPM_P2
2023/04/16 00:00:48;;;;;;;14.60;7.83;;;9.40;99.90;;;;;;6262598;22;20389;-76
2023/04/16 00:06:58;;;;;;;20.60;7.93;;;9.40;99.90;;;;;;6138705;23;20859;-76
2023/04/16 00:09:25;;;;;;;14.33;9.90;;;9.30;99.90;;;;;;6172969;22;21071;-75
2023/04/16 00:12:16;;;;;;;10.93;7.53;;;9.40;99.90;;;;;;6267902;22;20796;-74
2023/04/16 00:14:43;;;;;;;10.47;7.23;;;9.30;99.90;;;;;;6273428;22;20374;-75
2023/04/16 00:17:24;;;;;;;28.07;10.30;;;9.40;99.90;;;;;;6270236;22;20877;-76
2023/04/16 00:19:53;;;;;;;12.80;8.30;;;9.30;99.90;;;;;;6263872;22;20493;-75
2023/04/16 00:22:23;;;;;;;27.40;8.10;;;9.30;99.90;;;;;;6263047;22;20533;-76
2023/04/16 00:25:01;;;;;;;18.00;7.27;;;9.40;99.90;;;;;;6266669;22;20890;-76
2023/04/16 00:27:32;;;;;;;19.13;9.10;;;9.40;99.90;;;;;;6218711;22;20389;-76
2023/04/16 00:29:59;;;;;;;18.60;6.77;;;9.40;99.90;;;;;;6264346;22;20924;-75
2023/04/16 00:33:03;;;;;;;11.37;6.50;;;9.40;99.90;;;;;;6187036;22;20414;-75
2023/04/16 00:35:37;;;;;;;10.27;7.03;;;9.40;99.90;;;;;;6250778;22;20393;-76
2023/04/16 00:38:11;;;;;;;17.63;11.07;;;9.40;99.90;;;;;;6262359;22;20451;-76
2023/04/16 00:40:47;;;;;;;15.63;8.30;;;9.40;99.90;;;;;;6266886;22;20408;-75
2023/04/16 00:43:24;;;;;;;10.47;6.37;;;9.50;99.90;;;;;;6266075;22;20995;-76
2023/04/16 00:46:10;;;;;;;15.60;8.43;;;9.50;99.90;;;;;;6266306;22;20403;-75
2023/04/16 00:48:41;;;;;;;10.87;6.80;;;9.40;99.90;;;;;;6269019;22;20828;-76
2023/04/16 00:51:31;;;;;;;13.23;6.50;;;9.40;99.90;;;;;;6264692;22;20494;-76
2023/04/16 00:54:07;;;;;;;9.90;5.70;;;9.50;99.90;;;;;;6259407;22;20454;-76
2023/04/16 00:56:37;;;;;;;11.90;6.40;;;9.30;99.90;;;;;;6269207;22;20365;-75
2023/04/16 00:59:04;;;;;;;16.23;6.23;;;9.30;99.90;;;;;;6276038;22;20453;-75
2023/04/16 01:01:31;;;;;;;11.23;6.53;;;9.30;99.90;;;;;;6267022;22;20525;-76
2023/04/16 01:03:58;;;;;;;12.20;6.90;;;9.30;99.90;;;;;;6266334;22;20492;-75
2023/04/16 01:06:30;;;;;;;11.57;6.63;;;9.30;99.90;;;;;;6267645;22;20369;-75
2023/04/16 01:09:13;;;;;;;13.10;6.07;;;9.30;99.90;;;;;;6278622;22;20360;-76
2023/04/16 01:11:41;;;;;;;21.83;8.97;;;9.30;99.90;;;;;;6266053;22;20909;-75
2023/04/16 01:14:11;;;;;;;15.87;6.90;;;9.30;99.90;;;;;;6269573;22;20426;-75
2023/04/16 01:16:40;;;;;;;9.03;6.73;;;9.40;99.90;;;;;;6268744;22;20731;-75
2023/04/16 01:22:21;;;;;;;12.60;5.90;;;9.20;99.90;;;;;;6268654;22;20420;-75
2023/04/16 01:24:57;;;;;;;14.13;6.23;;;9.20;99.90;;;;;;6269716;22;20410;-77
2023/04/16 01:27:33;;;;;;;9.20;5.57;;;9.10;99.90;;;;;;6266216;22;20401;-75
2023/04/16 01:37:23;;;;;;;16.33;7.30;;;9.10;99.90;;;;;;6185492;22;20820;-76
2023/04/16 01:43:52;;;;;;;10.90;6.90;;;9.20;99.90;;;;;;6010121;23;20396;-76
2023/04/16 01:49:14;;;;;;;9.97;5.80;;;9.30;99.90;;;;;;6143299;23;20737;-77
2023/04/16 01:51:50;;;;;;;11.80;6.73;;;9.20;99.90;;;;;;6142904;23;20456;-77
2023/04/16 01:55:12;;;;;;;16.33;7.80;;;9.30;99.90;;;;;;6144903;23;20437;-76
2023/04/16 01:58:20;;;;;;;14.40;7.13;;;9.40;99.90;;;;;;6164556;23;20404;-76
2023/04/16 02:03:47;;;;;;;13.07;6.80;;;9.30;99.90;;;;;;6054783;23;20407;-76
2023/04/16 02:06:14;;;;;;;17.67;8.33;;;9.20;99.90;;;;;;6058382;23;20420;-74
2023/04/16 02:08:49;;;;;;;15.77;8.00;;;9.30;99.90;;;;;;6036417;23;20408;-76
2023/04/16 02:11:21;;;;;;;13.73;7.57;;;9.40;99.90;;;;;;6062050;23;20402;-77
2023/04/16 02:13:52;;;;;;;14.00;7.47;;;9.30;99.90;;;;;;6055485;23;20436;-76
2023/04/16 02:16:27;;;;;;;19.90;8.70;;;9.30;99.90;;;;;;6057867;23;20440;-77
2023/04/16 02:18:56;;;;;;;10.63;6.23;;;9.30;99.90;;;;;;6028478;23;20483;-77
2023/04/16 02:21:23;;;;;;;19.23;9.23;;;9.20;99.90;;;;;;6055313;23;20495;-77
2023/04/16 02:23:56;;;;;;;18.07;8.00;;;9.20;99.90;;;;;;6090682;23;20394;-76
2023/04/16 02:26:25;;;;;;;12.80;6.70;;;9.20;99.90;;;;;;6235021;23;20745;-75
2023/04/16 02:28:55;;;;;;;24.50;9.37;;;9.20;99.90;;;;;;6233923;23;20378;-76
2023/04/16 02:31:25;;;;;;;14.13;8.00;;;9.30;99.90;;;;;;6159295;23;20399;-73
2023/04/16 02:34:06;;;;;;;14.23;7.50;;;9.50;99.90;;;;;;6162504;23;20413;-77
2023/04/16 02:36:33;;;;;;;16.80;8.07;;;9.40;99.90;;;;;;6246926;23;20383;-77
2023/04/16 02:39:09;;;;;;;14.73;8.03;;;9.30;99.90;;;;;;6237702;23;20412;-74
2023/04/16 02:41:45;;;;;;;16.03;8.73;;;9.40;99.90;;;;;;6209522;23;20438;-77
2023/04/16 02:44:12;;;;;;;13.57;7.57;;;9.50;99.90;;;;;;6239185;23;20398;-77
2023/04/16 02:46:39;;;;;;;13.37;6.07;;;9.40;99.90;;;;;;6205649;23;20492;-77
2023/04/16 02:49:13;;;;;;;16.63;8.30;;;9.40;99.90;;;;;;6231088;23;20419;-76
2023/04/16 02:51:40;;;;;;;17.33;9.27;;;9.40;99.90;;;;;;6185666;23;20437;-76
2023/04/16 02:54:07;;;;;;;16.40;8.60;;;9.40;99.90;;;;;;6260524;22;20466;-77
2023/04/16 02:56:40;;;;;;;15.07;6.63;;;9.40;99.90;;;;;;6266227;22;20410;-77
2023/04/16 02:59:21;;;;;;;14.53;7.70;;;9.40;99.90;;;;;;6267558;22;20377;-76
2023/04/16 03:02:01;;;;;;;10.63;6.20;;;9.40;99.90;;;;;;6263397;22;20717;-77
2023/04/16 03:04:55;;;;;;;15.90;8.60;;;9.40;99.90;;;;;;6267081;22;20434;-73
2023/04/16 03:07:22;;;;;;;11.93;7.40;;;9.40;99.90;;;;;;6263213;22;20698;-76
2023/04/16 03:09:57;;;;;;;18.27;9.20;;;9.50;99.90;;;;;;6262259;22;20841;-74
2023/04/16 03:12:26;;;;;;;15.80;8.70;;;9.50;99.90;;;;;;6265390;22;20353;-74
2023/04/16 03:14:59;;;;;;;13.07;8.70;;;9.50;99.90;;;;;;6264367;22;20493;-75
2023/04/16 03:17:29;;;;;;;12.47;7.40;;;9.60;99.90;;;;;;6256941;22;20408;-72
2023/04/16 03:20:03;;;;;;;20.60;10.50;;;9.70;99.90;;;;;;6211988;22;20422;-76
2023/04/16 03:23:22;;;;;;;16.80;9.10;;;9.60;99.90;;;;;;6266344;22;20421;-76
2023/04/16 03:25:49;;;;;;;17.30;9.73;;;9.60;99.90;;;;;;6170151;23;20409;-75
2023/04/16 03:28:32;;;;;;;;;;;;;;;;;;;;;
2023/04/16 03:31:01;;;;;;;14.20;8.40;;;9.70;99.90;;;;;;6260687;22;20385;-74
2023/04/16 03:33:28;;;;;;;14.93;7.40;;;9.60;99.90;;;;;;6263054;22;20419;-76
2023/04/16 03:36:10;;;;;;;18.57;10.77;;;9.50;99.90;;;;;;6265765;22;20761;-74
2023/04/16 03:38:37;;;;;;;21.83;9.30;;;9.60;99.90;;;;;;6262592;22;20797;-75
2023/04/16 03:41:13;;;;;;;21.23;10.37;;;9.60;99.90;;;;;;6264571;22;20449;-75
2023/04/16 03:43:51;;;;;;;22.80;8.87;;;9.60;99.90;;;;;;6236920;22;20430;-75
2023/04/16 03:46:21;;;;;;;19.67;10.37;;;9.50;99.90;;;;;;6265256;22;20762;-76
2023/04/16 03:48:48;;;;;;;18.67;9.27;;;9.60;99.90;;;;;;6261095;22;20468;-74
2023/04/16 03:51:27;;;;;;;19.00;9.90;;;9.50;99.90;;;;;;6264538;22;20480;-74
2023/04/16 03:53:54;;;;;;;24.37;11.40;;;9.60;99.90;;;;;;6193382;22;21334;-75
2023/04/16 03:56:21;;;;;;;22.40;10.40;;;9.50;99.90;;;;;;6241540;22;20391;-76
2023/04/16 03:59:19;;;;;;;18.23;10.93;;;9.60;99.90;;;;;;6261846;22;20414;-73
2023/04/16 04:04:35;;;;;;;18.13;8.30;;;9.50;99.90;;;;;;6258215;22;20477;-76
2023/04/16 04:10:20;;;;;;;24.97;12.20;;;9.50;99.90;;;;;;6265782;22;20424;-75
2023/04/16 04:12:59;;;;;;;20.90;9.70;;;9.50;99.90;;;;;;6217623;22;20475;-76
2023/04/16 04:15:28;;;;;;;21.30;9.73;;;9.50;99.90;;;;;;6266185;22;20432;-77
2023/04/16 04:18:20;;;;;;;22.60;11.03;;;9.50;99.90;;;;;;6264800;22;20460;-76
2023/04/16 04:33:51;;;;;;;19.47;9.93;;;9.70;99.90;;;;;;6044881;23;20808;-77
2023/04/16 04:40:22;;;;;;;17.20;10.23;;;9.70;99.90;;;;;;6129881;23;20460;-76
2023/04/16 04:43:41;;;;;;;18.10;10.40;;;9.90;99.90;;;;;;6132916;23;20842;-76
2023/04/16 04:46:39;;;;;;;22.93;8.27;;;9.90;99.90;;;;;;6118197;23;20414;-73
2023/04/16 04:53:37;;;;;;;;;;;;;;;;;;;;;
2023/04/16 04:59:15;;;;;;;19.47;10.00;;;9.90;99.90;;;;;;5971889;23;20899;-75
2023/04/16 05:09:13;;;;;;;36.83;12.53;;;9.90;99.90;;;;;;5977162;23;20458;-77
2023/04/16 05:33:45;;;;;;;18.80;10.97;;;9.90;99.90;;;;;;5881353;24;20464;-76
2023/04/16 05:39:39;;;;;;;24.30;10.93;;;10.00;99.90;;;;;;5810686;24;20818;-76
2023/04/16 06:20:16;;;;;;;;;;;;;;;;;;;;;
2023/04/16 06:26:04;;;;;;;19.93;10.30;;;10.10;99.90;;;;;;6088873;23;20414;-77
2023/04/16 06:29:04;;;;;;;19.07;10.17;;;10.20;99.90;;;;;;6085210;23;20390;-76
2023/04/16 06:32:02;;;;;;;16.40;8.47;;;10.20;99.90;;;;;;6090074;23;20461;-78
2023/04/16 06:41:21;;;;;;;14.40;10.13;;;10.10;99.90;;;;;;6024172;23;20432;-77
2023/04/16 06:44:06;;;;;;;19.27;10.87;;;10.20;99.90;;;;;;6078801;23;20433;-75
2023/04/16 06:46:45;;;;;;;22.17;11.00;;;10.30;99.90;;;;;;6081250;23;20414;-78
2023/04/16 06:52:34;;;;;;;19.37;10.50;;;10.50;99.90;;;;;;6034162;23;20423;-78
2023/04/16 06:55:07;;;;;;;17.50;8.57;;;10.40;99.90;;;;;;6077269;23;21107;-76
2023/04/16 07:07:15;;;;;;;17.30;9.00;;;10.70;99.90;;;;;;6176774;23;20557;-77
2023/04/16 07:09:47;;;;;;;16.80;9.80;;;10.50;99.90;;;;;;6176941;23;20404;-73
2023/04/16 07:12:30;;;;;;;17.70;10.17;;;10.50;99.90;;;;;;6172924;23;20406;-77
2023/04/16 07:14:57;;;;;;;23.73;14.10;;;10.40;99.90;;;;;;6171823;23;20466;-76
2023/04/16 07:17:24;;;;;;;21.07;10.93;;;10.40;99.90;;;;;;6171514;23;20970;-77
2023/04/16 07:20:51;;;;;;;18.43;11.00;;;10.50;99.90;;;;;;6171921;23;20850;-78
2023/04/16 07:26:35;;;;;;;16.80;9.37;;;10.80;99.90;;;;;;6171366;23;20388;-75
2023/04/16 07:29:05;;;;;;;28.00;11.20;;;10.70;99.90;;;;;;6176757;23;20447;-76
2023/04/16 07:32:00;;;;;;;22.70;11.93;;;10.80;99.90;;;;;;6151595;23;20409;-76
2023/04/16 07:34:46;;;;;;;;;;;;;;;;;;;;;
2023/04/16 07:37:17;;;;;;;21.73;11.50;;;10.60;99.90;;;;;;6173588;23;20372;-74
2023/04/16 07:40:28;;;;;;;17.13;8.73;;;10.70;99.90;;;;;;6176551;23;20425;-77
2023/04/16 07:45:41;;;;;;;23.83;12.40;;;10.90;99.90;;;;;;6239930;23;20923;-76
2023/04/16 07:48:14;;;;;;;19.00;9.43;;;11.00;99.90;;;;;;6243736;23;20432;-72
2023/04/16 07:50:42;;;;;;;19.73;11.60;;;11.00;99.90;;;;;;6242029;23;20448;-75
2023/04/16 07:53:11;;;;;;;19.33;11.43;;;10.80;99.90;;;;;;6240198;23;20397;-75
2023/04/16 07:55:46;;;;;;;25.07;12.87;;;10.80;99.90;;;;;;6238946;23;20439;-76
2023/04/16 07:58:19;;;;;;;18.50;10.80;;;10.90;99.90;;;;;;6238851;23;20885;-75
2023/04/16 08:00:47;;;;;;;16.63;10.80;;;11.00;99.90;;;;;;6233287;23;20380;-76
2023/04/16 08:06:28;;;;;;;14.80;6.90;;;11.20;99.90;;;;;;6227773;23;21121;-78
2023/04/16 08:08:56;;;;;;;17.77;11.03;;;11.10;99.90;;;;;;6238262;23;20402;-75
2023/04/16 08:11:24;;;;;;;19.80;12.53;;;10.90;99.90;;;;;;6235848;23;20403;-76
2023/04/16 08:13:53;;;;;;;15.20;8.77;;;10.80;99.90;;;;;;6236468;23;20998;-75
2023/04/16 08:16:22;;;;;;;19.13;11.40;;;10.80;99.90;;;;;;6236942;23;20505;-75
2023/04/16 08:18:49;;;;;;;14.77;10.30;;;10.70;99.90;;;;;;6229802;23;20403;-76
2023/04/16 08:32:04;;;;;;;;;;;;;;;;;;;;;
2023/04/16 08:47:53;;;;;;;20.43;10.60;;;11.40;99.90;;;;;;6268350;22;20739;-77
2023/04/16 08:50:27;;;;;;;20.47;9.20;;;11.40;99.90;;;;;;6270986;22;20811;-77
2023/04/16 08:53:43;;;;;;;17.20;10.93;;;11.30;99.90;;;;;;6271030;22;20421;-73
2023/04/16 09:02:54;;;;;;;20.20;10.20;;;11.50;99.90;;;;;;5980590;23;20481;-75
2023/04/16 09:09:03;;;;;;;19.70;10.00;;;11.40;99.90;;;;;;6101089;23;20410;-76
2023/04/16 09:22:20;;;;;;;14.00;8.83;;;11.40;99.90;;;;;;5980787;23;20396;-76
2023/04/16 09:29:03;;;;;;;22.07;12.00;;;11.70;99.90;;;;;;5915380;24;20817;-77
2023/04/16 09:31:30;;;;;;;16.17;9.93;;;11.90;99.90;;;;;;5971177;23;20753;-76
2023/04/16 09:34:18;;;;;;;18.33;9.77;;;11.90;99.90;;;;;;5998599;23;20446;-75
2023/04/16 09:43:00;;;;;;;17.20;11.03;;;11.70;99.90;;;;;;6114098;23;20705;-73
2023/04/16 09:48:40;;;;;;;16.17;10.50;;;11.90;99.90;;;;;;6262237;22;20394;-77
2023/04/16 09:51:08;;;;;;;22.10;14.77;;;12.00;99.90;;;;;;6264118;22;20418;-77
2023/04/16 09:54:12;;;;;;;19.17;10.57;;;12.00;99.90;;;;;;6268366;22;20453;-77
2023/04/16 09:57:21;;;;;;;25.70;11.63;;;12.00;99.90;;;;;;6267234;22;20402;-77
2023/04/16 10:00:27;;;;;;;17.77;10.30;;;12.30;99.90;;;;;;6236219;22;20452;-77
2023/04/16 10:06:35;;;;;;;22.20;12.67;;;12.60;99.90;;;;;;6003141;23;20461;-73
2023/04/16 10:10:04;;;;;;;18.50;12.13;;;12.70;99.90;;;;;;6130668;22;20929;-74
2023/04/16 10:26:09;;;;;;;15.73;11.83;;;14.10;99.90;;;;;;4985805;28;20513;-74
2023/04/16 10:29:01;;;;;;;18.40;11.30;;;14.10;99.90;;;;;;5047467;28;20570;-77
2023/04/16 10:31:30;;;;;;;10.20;8.43;;;13.80;99.90;;;;;;5045293;28;20802;-76
2023/04/16 10:33:59;;;;;;;16.63;9.33;;;13.50;99.90;;;;;;5038611;28;20479;-74
2023/04/16 10:36:27;;;;;;;13.83;9.87;;;13.60;99.90;;;;;;5035367;28;20475;-76
2023/04/16 11:35:38;;;;;;;13.20;8.80;;;15.30;99.90;;;;;;4787983;29;20498;-72
2023/04/16 11:41:51;;;;;;;11.50;8.70;;;15.00;99.90;;;;;;4829600;29;20542;-75
2023/04/16 11:44:45;;;;;;;16.17;9.63;;;14.80;99.90;;;;;;4879322;29;20840;-76
2023/04/16 11:50:32;;;;;;;16.57;10.13;;;14.60;99.90;;;;;;4870348;29;20500;-74
2023/04/16 12:00:00;;;;;;;12.37;9.80;;;14.50;99.90;;;;;;4925276;28;20455;-76
2023/04/16 12:03:18;;;;;;;12.23;8.73;;;14.40;99.90;;;;;;4949655;28;20514;-76
2023/04/16 12:06:07;;;;;;;15.40;8.03;;;14.40;99.90;;;;;;4945204;28;20475;-71
2023/04/16 12:12:34;;;;;;;12.63;8.57;;;14.30;99.90;;;;;;4898716;28;20471;-73
2023/04/16 12:22:14;;;;;;;;;;;;;;;;;;;;;
2023/04/16 12:31:05;;;;;;;16.73;9.70;;;14.80;99.90;;;;;;4904453;28;20476;-76
2023/04/16 12:37:34;;;;;;;18.27;9.23;;;15.10;99.90;;;;;;4906533;29;20772;-77
2023/04/16 12:43:35;;;;;;;10.40;8.20;;;15.20;99.90;;;;;;4807277;29;20519;-76
2023/04/16 12:53:30;;;;;;;;;;;;;;;;;;;;;
2023/04/16 12:56:17;;;;;;;10.77;7.70;;;15.00;99.90;;;;;;4933832;28;20459;-76
2023/04/16 12:59:01;;;;;;;16.83;9.40;;;15.20;99.90;;;;;;5015669;28;20479;-76
2023/04/16 13:02:08;;;;;;;17.67;11.00;;;15.30;99.90;;;;;;5031181;28;20528;-76
2023/04/16 13:18:35;;;;;;;;;;;;;;;;;;;;;
2023/04/16 13:21:18;;;;;;;13.83;9.00;;;15.80;99.90;;;;;;4965882;28;20979;-75
2023/04/16 13:23:50;;;;;;;12.83;7.80;;;15.60;99.90;;;;;;4957974;28;20487;-77
2023/04/16 13:30:19;;;;;;;8.57;6.63;;;15.10;99.90;;;;;;5046688;28;20493;-76
2023/04/16 13:32:49;;;;;;;11.43;6.30;;;15.10;99.90;;;;;;5059978;28;20502;-75
2023/04/16 13:39:04;;;;;;;;;;;;;;;;;;;;;
2023/04/16 13:41:32;;;;;;;10.63;8.00;;;14.70;99.90;;;;;;5046551;28;20541;-75
2023/04/16 13:44:05;;;;;;;11.63;7.80;;;14.80;99.90;;;;;;5045616;28;20493;-76
2023/04/16 13:46:53;;;;;;;10.47;6.70;;;14.90;99.90;;;;;;5043595;28;20515;-78
2023/04/16 13:49:29;;;;;;;11.73;8.13;;;15.10;99.90;;;;;;5045649;28;20545;-74
2023/04/16 13:51:59;;;;;;;12.40;8.00;;;15.10;99.90;;;;;;5047533;28;20455;-72
2023/04/16 13:54:41;;;;;;;16.00;7.60;;;15.40;99.90;;;;;;5050320;28;20599;-77
2023/04/16 13:57:23;;;;;;;9.10;6.90;;;15.80;99.90;;;;;;5043867;28;20459;-76
2023/04/16 13:59:53;;;;;;;9.63;6.70;;;16.20;99.90;;;;;;5045402;28;20450;-76
2023/04/16 14:02:37;;;;;;;13.50;6.53;;;16.50;99.90;;;;;;5036764;28;20543;-76
2023/04/16 14:07:54;;;;;;;10.60;7.47;;;16.20;99.90;;;;;;5045636;28;20959;-76
2023/04/16 14:13:19;;;;;;;13.07;8.63;;;15.60;99.90;;;;;;5042735;28;20553;-76
2023/04/16 14:16:05;;;;;;;10.53;7.03;;;15.80;99.90;;;;;;5047276;28;20520;-75
2023/04/16 14:32:14;;;;;;;12.93;8.57;;;16.10;99.90;;;;;;5036170;28;20600;-75
2023/04/16 14:47:32;;;;;;;13.33;9.63;;;15.40;99.90;;;;;;5031601;28;21126;-75
2023/04/16 14:49:59;;;;;;;24.80;6.67;;;15.20;99.90;;;;;;5040277;28;20455;-76
2023/04/16 14:53:05;;;;;;;11.20;6.47;;;15.20;99.90;;;;;;5045348;28;20486;-75
2023/04/16 14:55:31;;;;;;;9.53;6.40;;;15.10;99.90;;;;;;5038551;28;20454;-75
2023/04/16 14:58:12;;;;;;;10.43;7.93;;;15.10;99.90;;;;;;5038838;28;20475;-75
2023/04/16 15:00:44;;;;;;;11.80;7.43;;;15.20;99.90;;;;;;5042179;28;20547;-75
2023/04/16 15:03:18;;;;;;;8.90;6.27;;;15.30;99.90;;;;;;5012328;28;20552;-76
2023/04/16 15:06:03;;;;;;;9.37;6.67;;;15.20;99.90;;;;;;5037006;28;21032;-77
2023/04/16 15:11:20;;;;;;;10.80;6.93;;;15.00;99.90;;;;;;5049531;28;20443;-74
2023/04/16 15:14:13;;;;;;;12.27;8.30;;;15.10;99.90;;;;;;5043143;28;20487;-76
2023/04/16 15:16:42;;;;;;;9.47;7.80;;;15.30;99.90;;;;;;5047898;28;20532;-76
2023/04/16 15:19:09;;;;;;;11.17;7.83;;;15.20;99.90;;;;;;5042178;28;20487;-76
2023/04/16 15:21:42;;;;;;;11.27;6.67;;;15.30;99.90;;;;;;5042528;28;20491;-73
2023/04/16 15:24:26;;;;;;;9.00;6.43;;;15.20;99.90;;;;;;5057074;28;20602;-72
2023/04/16 15:26:57;;;;;;;10.10;7.43;;;15.20;99.90;;;;;;5067347;28;20436;-76
2023/04/16 15:29:27;;;;;;;9.00;7.10;;;15.40;99.90;;;;;;5052133;28;20547;-75
2023/04/16 15:35:45;;;;;;;7.90;7.10;;;15.70;99.90;;;;;;4987259;28;21139;-77
2023/04/16 15:41:51;;;;;;;8.70;6.60;;;15.70;99.90;;;;;;4966432;28;20845;-75
2023/04/16 15:44:40;;;;;;;9.33;5.90;;;15.70;99.90;;;;;;5020460;28;21065;-77
2023/04/16 15:50:38;;;;;;;10.67;6.17;;;15.60;99.90;;;;;;5037666;28;20977;-76
2023/04/16 15:53:11;;;;;;;9.63;7.50;;;15.60;99.90;;;;;;5042666;28;20570;-77
2023/04/16 15:55:38;;;;;;;11.97;6.53;;;15.50;99.90;;;;;;5048823;28;20856;-76
2023/04/16 15:58:05;;;;;;;8.73;5.37;;;15.60;99.90;;;;;;5050519;28;20461;-76
2023/04/16 16:00:40;;;;;;;7.70;6.20;;;15.60;99.90;;;;;;5046100;28;20991;-76
2023/04/16 16:03:17;;;;;;;9.40;7.53;;;15.40;99.90;;;;;;5054679;28;20594;-77
2023/04/16 16:05:47;;;;;;;13.63;7.73;;;15.40;99.90;;;;;;5039396;28;20472;-76
2023/04/16 16:08:20;;;;;;;7.00;4.73;;;15.30;99.90;;;;;;5046588;28;20494;-77
2023/04/16 16:14:30;;;;;;;8.30;6.80;;;15.40;99.90;;;;;;5029857;28;20483;-76
2023/04/16 16:20:21;;;;;;;9.57;7.43;;;15.40;99.90;;;;;;4984510;28;20501;-75
2023/04/16 16:23:19;;;;;;;10.67;7.60;;;15.40;99.90;;;;;;4995862;28;20502;-75
2023/04/16 16:26:21;;;;;;;9.13;7.43;;;15.50;99.90;;;;;;4938075;28;20448;-76
2023/04/16 16:38:19;;;;;;;6.10;5.30;;;15.30;99.90;;;;;;5036927;28;20464;-77
2023/04/16 16:41:23;;;;;;;12.63;7.70;;;15.30;99.90;;;;;;5044588;28;20463;-75
2023/04/16 16:50:50;;;;;;;13.27;7.33;;;15.40;99.90;;;;;;5019865;28;20467;-75
2023/04/16 16:54:45;;;;;;;;;;;;;;;;;;;;;
2023/04/16 16:57:22;;;;;;;9.63;7.00;;;15.20;99.90;;;;;;4998035;28;20470;-75
2023/04/16 17:00:13;;;;;;;11.33;6.50;;;15.10;99.90;;;;;;5042360;28;20486;-76
2023/04/16 17:02:50;;;;;;;10.17;8.30;;;14.90;99.90;;;;;;5063546;22;20656;-77
2023/04/16 17:09:13;;;;;;;12.20;8.10;;;15.10;99.90;;;;;;4952125;28;20441;-76
2023/04/16 17:12:24;;;;;;;;;;;;;;;;;;;;;
2023/04/16 17:18:30;;;;;;;12.80;7.00;;;15.10;99.90;;;;;;4987739;28;20477;-75
2023/04/16 17:25:01;;;;;;;11.90;7.77;;;15.30;99.90;;;;;;4961476;28;20482;-75
2023/04/16 17:28:18;;;;;;;;;;;;;;;;;;;;;
2023/04/16 17:31:36;;;;;;;10.27;8.17;;;15.20;99.90;;;;;;4921934;29;20475;-74
2023/04/16 17:37:12;;;;;;;9.97;7.30;;;14.80;99.90;;;;;;4898747;28;20505;-75
2023/04/16 17:39:39;;;;;;;12.00;7.37;;;14.80;99.90;;;;;;4980109;28;20739;-76
2023/04/16 17:42:10;;;;;;;13.10;9.00;;;14.80;99.90;;;;;;4986307;28;20529;-73
2023/04/16 17:44:53;;;;;;;11.83;8.73;;;15.00;99.90;;;;;;4996134;28;20428;-76
2023/04/16 17:47:31;;;;;;;18.30;10.47;;;15.00;99.90;;;;;;5006431;28;20462;-76
2023/04/16 17:50:06;;;;;;;13.87;8.00;;;14.90;99.90;;;;;;5006448;28;20446;-76
2023/04/16 17:52:33;;;;;;;29.23;9.37;;;14.80;99.90;;;;;;4996741;28;20483;-75
2023/04/16 17:55:00;;;;;;;11.50;7.80;;;14.70;99.90;;;;;;5008913;28;20441;-76
2023/04/16 17:57:28;;;;;;;11.93;8.40;;;14.70;99.90;;;;;;4999944;28;20949;-76
2023/04/16 18:06:34;;;;;;;10.83;7.17;;;14.40;99.90;;;;;;4994323;28;20466;-76
2023/04/16 18:09:25;;;;;;;10.20;7.67;;;14.30;99.90;;;;;;5005790;28;20834;-77
2023/04/16 18:12:18;;;;;;;17.10;9.10;;;14.30;99.90;;;;;;5007005;28;20620;-77
2023/04/16 18:15:06;;;;;;;14.70;7.60;;;14.20;99.90;;;;;;5013213;28;20494;-76
2023/04/16 18:18:14;;;;;;;;;;;;;;;;;;;;;
2023/04/16 18:21:23;;;;;;;15.47;8.80;;;14.10;99.90;;;;;;5006072;28;20484;-77
2023/04/16 18:27:41;;;;;;;13.47;8.83;;;14.10;99.90;;;;;;4907019;29;20474;-78
2023/04/16 18:30:13;;;;;;;14.00;9.13;;;14.10;99.90;;;;;;4945622;28;20454;-76
2023/04/16 18:35:53;;;;;;;11.70;9.30;;;14.00;99.90;;;;;;4935016;28;20930;-76
2023/04/16 18:38:43;;;;;;;18.00;9.13;;;14.00;99.90;;;;;;4967147;28;20463;-73
2023/04/16 18:41:32;;;;;;;15.53;9.87;;;14.00;99.90;;;;;;4971276;28;20546;-76
2023/04/16 18:48:12;;;;;;;18.90;9.97;;;14.00;99.90;;;;;;4928848;28;20614;-74
2023/04/16 18:51:23;;;;;;;13.00;8.00;;;14.00;99.90;;;;;;4942342;28;20474;-77
2023/04/16 19:01:13;;;;;;;;;;;;;;;;;;;;;
2023/04/16 19:07:50;;;;;;;18.17;11.30;;;13.70;99.90;;;;;;4961071;28;20568;-75
2023/04/16 19:13:48;;;;;;;;;;;;;;;;;;;;;
2023/04/16 19:16:46;;;;;;;15.57;10.40;;;13.70;99.90;;;;;;5001562;28;20453;-76
2023/04/16 19:26:42;;;;;;;17.60;11.30;;;13.40;99.90;;;;;;4878842;29;20470;-74
2023/04/16 19:35:38;;;;;;;17.90;10.40;;;13.30;99.90;;;;;;4896594;29;20571;-75
2023/04/16 19:38:52;;;;;;;12.67;8.50;;;13.20;99.90;;;;;;4904322;29;20636;-76
2023/04/16 19:49:11;;;;;;;15.40;8.50;;;13.10;99.90;;;;;;4882704;29;20513;-75
2023/04/16 19:52:26;;;;;;;12.40;7.80;;;13.10;99.90;;;;;;4851066;29;20453;-73
2023/04/16 19:55:26;;;;;;;19.93;8.53;;;13.00;99.90;;;;;;4792455;29;20459;-75
2023/04/16 19:57:55;;;;;;;18.63;8.50;;;13.10;99.90;;;;;;4775487;29;21133;-76
2023/04/16 20:00:22;;;;;;;10.93;8.50;;;13.10;99.90;;;;;;4870494;29;20478;-77
2023/04/16 20:03:13;;;;;;;13.07;7.47;;;12.90;99.90;;;;;;4954833;28;20584;-77
2023/04/16 20:05:40;;;;;;;15.13;8.50;;;12.90;99.90;;;;;;4960811;28;20475;-74
